sensor_id;sensor_type;location;lat;lon;timestamp;P1;durP1;ratioP1;P2;durP2;ratioP2
29634;SDS011;16557;54.762;56.068;2023-02-12T00:01:40;11.57;;;6.40;;
29634;SDS011;16557;54.762;56.068;2023-02-12T00:04:09;10.48;;;6.70;;
29634;SDS011;16557;54.762;56.068;2023-02-12T00:06:39;10.38;;;6.50;;
29634;SDS011;16557;54.762;56.068;2023-02-12T00:09:08;11.57;;;6.97;;
29634;SDS011;16557;54.762;56.068;2023-02-12T00:11:37;12.58;;;7.37;;
29634;SDS011;16557;54.762;56.068;2023-02-12T00:14:06;11.03;;;6.65;;
29634;SDS011;16557;54.762;56.068;2023-02-12T00:16:36;11.50;;;6.70;;
29634;SDS011;16557;54.762;56.068;2023-02-12T00:19:05;11.63;;;6.37;;
29634;SDS011;16557;54.762;56.068;2023-02-12T00:21:34;12.50;;;6.65;;
29634;SDS011;16557;54.762;56.068;2023-02-12T00:24:04;12.93;;;7.22;;
29634;SDS011;16557;54.762;56.068;2023-02-12T00:26:34;13.43;;;7.05;;
29634;SDS011;16557;54.762;56.068;2023-02-12T00:29:03;12.15;;;6.83;;
29634;SDS011;16557;54.762;56.068;2023-02-12T00:31:32;11.63;;;6.95;;
29634;SDS011;16557;54.762;56.068;2023-02-12T00:34:02;11.48;;;7.30;;
29634;SDS011;16557;54.762;56.068;2023-02-12T00:36:31;11.70;;;7.17;;
29634;SDS011;16557;54.762;56.068;2023-02-12T00:39:00;11.33;;;6.95;;
29634;SDS011;16557;54.762;56.068;2023-02-12T00:41:29;12.73;;;7.20;;
29634;SDS011;16557;54.762;56.068;2023-02-12T00:43:59;12.37;;;7.25;;
29634;SDS011;16557;54.762;56.068;2023-02-12T00:46:28;15.03;;;7.70;;
29634;SDS011;16557;54.762;56.068;2023-02-12T00:48:57;13.90;;;8.35;;
29634;SDS011;16557;54.762;56.068;2023-02-12T00:51:26;14.53;;;8.03;;
29634;SDS011;16557;54.762;56.068;2023-02-12T00:53:56;16.05;;;7.72;;
29634;SDS011;16557;54.762;56.068;2023-02-12T00:56:25;14.05;;;8.83;;
29634;SDS011;16557;54.762;56.068;2023-02-12T00:58:54;13.00;;;7.45;;
29634;SDS011;16557;54.762;56.068;2023-02-12T01:01:23;12.85;;;7.58;;
29634;SDS011;16557;54.762;56.068;2023-02-12T01:03:53;14.23;;;8.28;;
29634;SDS011;16557;54.762;56.068;2023-02-12T01:06:22;13.72;;;8.23;;
29634;SDS011;16557;54.762;56.068;2023-02-12T01:08:51;13.60;;;7.70;;
29634;SDS011;16557;54.762;56.068;2023-02-12T01:11:21;12.07;;;7.30;;
29634;SDS011;16557;54.762;56.068;2023-02-12T01:13:50;11.95;;;7.20;;
29634;SDS011;16557;54.762;56.068;2023-02-12T01:16:20;13.30;;;7.75;;
29634;SDS011;16557;54.762;56.068;2023-02-12T01:18:51;14.28;;;7.97;;
29634;SDS011;16557;54.762;56.068;2023-02-12T01:21:27;14.33;;;8.10;;
29634;SDS011;16557;54.762;56.068;2023-02-12T01:23:53;15.32;;;8.43;;
29634;SDS011;16557;54.762;56.068;2023-02-12T01:26:22;14.53;;;8.00;;
29634;SDS011;16557;54.762;56.068;2023-02-12T01:28:53;14.30;;;7.87;;
29634;SDS011;16557;54.762;56.068;2023-02-12T01:31:25;12.60;;;7.92;;
29634;SDS011;16557;54.762;56.068;2023-02-12T01:33:56;14.23;;;8.15;;
29634;SDS011;16557;54.762;56.068;2023-02-12T01:36:27;13.88;;;7.72;;
29634;SDS011;16557;54.762;56.068;2023-02-12T01:38:57;12.18;;;7.37;;
29634;SDS011;16557;54.762;56.068;2023-02-12T01:41:29;16.32;;;8.70;;
29634;SDS011;16557;54.762;56.068;2023-02-12T01:44:04;15.28;;;8.75;;
29634;SDS011;16557;54.762;56.068;2023-02-12T01:46:44;12.70;;;8.23;;
29634;SDS011;16557;54.762;56.068;2023-02-12T01:49:19;13.38;;;7.83;;
29634;SDS011;16557;54.762;56.068;2023-02-12T01:51:47;12.82;;;7.97;;
29634;SDS011;16557;54.762;56.068;2023-02-12T01:54:19;13.05;;;8.30;;
29634;SDS011;16557;54.762;56.068;2023-02-12T01:56:49;12.85;;;8.58;;
29634;SDS011;16557;54.762;56.068;2023-02-12T01:59:19;12.93;;;8.30;;
29634;SDS011;16557;54.762;56.068;2023-02-12T02:01:49;14.13;;;8.70;;
29634;SDS011;16557;54.762;56.068;2023-02-12T02:04:19;14.47;;;8.58;;
29634;SDS011;16557;54.762;56.068;2023-02-12T02:06:57;16.17;;;8.65;;
29634;SDS011;16557;54.762;56.068;2023-02-12T02:09:30;12.35;;;7.58;;
29634;SDS011;16557;54.762;56.068;2023-02-12T02:12:00;16.00;;;8.33;;
29634;SDS011;16557;54.762;56.068;2023-02-12T02:14:48;14.50;;;8.53;;
29634;SDS011;16557;54.762;56.068;2023-02-12T02:17:27;14.75;;;8.28;;
29634;SDS011;16557;54.762;56.068;2023-02-12T02:20:15;15.08;;;8.58;;
29634;SDS011;16557;54.762;56.068;2023-02-12T02:23:06;16.40;;;9.20;;
29634;SDS011;16557;54.762;56.068;2023-02-12T02:25:56;16.62;;;8.30;;
29634;SDS011;16557;54.762;56.068;2023-02-12T02:28:50;15.95;;;9.03;;
29634;SDS011;16557;54.762;56.068;2023-02-12T02:31:43;13.62;;;8.13;;
29634;SDS011;16557;54.762;56.068;2023-02-12T02:40:03;15.38;;;8.60;;
29634;SDS011;16557;54.762;56.068;2023-02-12T02:45:24;16.17;;;8.40;;
29634;SDS011;16557;54.762;56.068;2023-02-12T02:47:59;17.65;;;9.10;;
29634;SDS011;16557;54.762;56.068;2023-02-12T02:50:33;19.90;;;10.58;;
29634;SDS011;16557;54.762;56.068;2023-02-12T02:53:09;15.98;;;8.95;;
29634;SDS011;16557;54.762;56.068;2023-02-12T02:55:37;14.65;;;9.23;;
29634;SDS011;16557;54.762;56.068;2023-02-12T02:58:10;15.45;;;8.85;;
29634;SDS011;16557;54.762;56.068;2023-02-12T03:00:47;20.37;;;10.28;;
29634;SDS011;16557;54.762;56.068;2023-02-12T03:06:12;17.10;;;9.35;;
29634;SDS011;16557;54.762;56.068;2023-02-12T03:08:45;17.05;;;9.53;;
29634;SDS011;16557;54.762;56.068;2023-02-12T03:11:24;19.82;;;10.45;;
29634;SDS011;16557;54.762;56.068;2023-02-12T03:13:56;16.75;;;9.28;;
29634;SDS011;16557;54.762;56.068;2023-02-12T03:16:31;17.82;;;9.05;;
29634;SDS011;16557;54.762;56.068;2023-02-12T03:19:04;20.15;;;10.68;;
29634;SDS011;16557;54.762;56.068;2023-02-12T03:21:36;17.30;;;9.65;;
29634;SDS011;16557;54.762;56.068;2023-02-12T03:24:10;18.75;;;9.90;;
29634;SDS011;16557;54.762;56.068;2023-02-12T03:26:46;20.37;;;10.05;;
29634;SDS011;16557;54.762;56.068;2023-02-12T03:29:16;18.27;;;10.00;;
29634;SDS011;16557;54.762;56.068;2023-02-12T03:31:52;21.77;;;11.15;;
29634;SDS011;16557;54.762;56.068;2023-02-12T03:34:23;20.00;;;10.23;;
29634;SDS011;16557;54.762;56.068;2023-02-12T03:37:03;18.15;;;9.73;;
29634;SDS011;16557;54.762;56.068;2023-02-12T03:42:32;18.50;;;9.68;;
29634;SDS011;16557;54.762;56.068;2023-02-12T03:45:24;16.52;;;9.50;;
29634;SDS011;16557;54.762;56.068;2023-02-12T03:48:07;18.87;;;11.53;;
29634;SDS011;16557;54.762;56.068;2023-02-12T03:50:56;20.92;;;11.05;;
29634;SDS011;16557;54.762;56.068;2023-02-12T03:53:26;17.37;;;9.63;;
29634;SDS011;16557;54.762;56.068;2023-02-12T03:56:01;20.23;;;10.00;;
29634;SDS011;16557;54.762;56.068;2023-02-12T03:58:31;20.12;;;10.85;;
29634;SDS011;16557;54.762;56.068;2023-02-12T04:01:02;21.40;;;10.18;;
29634;SDS011;16557;54.762;56.068;2023-02-12T04:03:31;17.35;;;9.23;;
29634;SDS011;16557;54.762;56.068;2023-02-12T04:06:01;16.65;;;9.45;;
29634;SDS011;16557;54.762;56.068;2023-02-12T04:08:30;16.45;;;8.63;;
29634;SDS011;16557;54.762;56.068;2023-02-12T04:14:01;16.10;;;9.93;;
29634;SDS011;16557;54.762;56.068;2023-02-12T04:19:58;16.90;;;8.65;;
29634;SDS011;16557;54.762;56.068;2023-02-12T04:30:50;17.85;;;9.93;;
29634;SDS011;16557;54.762;56.068;2023-02-12T04:33:20;17.65;;;9.05;;
29634;SDS011;16557;54.762;56.068;2023-02-12T04:36:05;16.07;;;8.13;;
29634;SDS011;16557;54.762;56.068;2023-02-12T04:38:48;14.25;;;8.58;;
29634;SDS011;16557;54.762;56.068;2023-02-12T04:41:21;17.48;;;9.00;;
29634;SDS011;16557;54.762;56.068;2023-02-12T04:43:50;16.87;;;9.35;;
29634;SDS011;16557;54.762;56.068;2023-02-12T04:46:20;17.57;;;9.73;;
29634;SDS011;16557;54.762;56.068;2023-02-12T04:48:51;15.05;;;8.35;;
29634;SDS011;16557;54.762;56.068;2023-02-12T04:51:21;18.12;;;8.95;;
29634;SDS011;16557;54.762;56.068;2023-02-12T04:53:50;18.70;;;9.08;;
29634;SDS011;16557;54.762;56.068;2023-02-12T04:56:20;20.30;;;11.53;;
29634;SDS011;16557;54.762;56.068;2023-02-12T04:58:49;15.75;;;9.83;;
29634;SDS011;16557;54.762;56.068;2023-02-12T05:01:19;16.77;;;9.60;;
29634;SDS011;16557;54.762;56.068;2023-02-12T05:03:50;22.15;;;9.60;;
29634;SDS011;16557;54.762;56.068;2023-02-12T05:06:19;19.70;;;10.50;;
29634;SDS011;16557;54.762;56.068;2023-02-12T05:08:48;18.27;;;9.15;;
29634;SDS011;16557;54.762;56.068;2023-02-12T05:11:22;19.30;;;10.38;;
29634;SDS011;16557;54.762;56.068;2023-02-12T05:13:52;17.10;;;9.95;;
29634;SDS011;16557;54.762;56.068;2023-02-12T05:16:21;16.57;;;8.80;;
29634;SDS011;16557;54.762;56.068;2023-02-12T05:18:51;22.37;;;11.18;;
29634;SDS011;16557;54.762;56.068;2023-02-12T05:21:20;18.10;;;9.80;;
29634;SDS011;16557;54.762;56.068;2023-02-12T05:23:49;18.87;;;9.95;;
29634;SDS011;16557;54.762;56.068;2023-02-12T05:26:19;17.25;;;9.75;;
29634;SDS011;16557;54.762;56.068;2023-02-12T05:28:49;14.58;;;8.88;;
29634;SDS011;16557;54.762;56.068;2023-02-12T05:31:18;19.77;;;9.75;;
29634;SDS011;16557;54.762;56.068;2023-02-12T05:33:49;17.55;;;9.88;;
29634;SDS011;16557;54.762;56.068;2023-02-12T05:36:19;21.10;;;11.83;;
29634;SDS011;16557;54.762;56.068;2023-02-12T05:38:49;22.37;;;11.15;;
29634;SDS011;16557;54.762;56.068;2023-02-12T05:41:20;18.40;;;10.25;;
29634;SDS011;16557;54.762;56.068;2023-02-12T05:43:50;18.65;;;10.00;;
29634;SDS011;16557;54.762;56.068;2023-02-12T05:46:20;18.52;;;10.25;;
29634;SDS011;16557;54.762;56.068;2023-02-12T05:48:49;20.52;;;10.85;;
29634;SDS011;16557;54.762;56.068;2023-02-12T05:51:21;34.55;;;15.15;;
29634;SDS011;16557;54.762;56.068;2023-02-12T05:53:54;17.07;;;8.98;;
29634;SDS011;16557;54.762;56.068;2023-02-12T05:56:27;21.25;;;10.38;;
29634;SDS011;16557;54.762;56.068;2023-02-12T05:59:01;18.55;;;10.65;;
29634;SDS011;16557;54.762;56.068;2023-02-12T06:01:36;16.93;;;9.98;;
29634;SDS011;16557;54.762;56.068;2023-02-12T06:04:07;21.97;;;9.90;;
29634;SDS011;16557;54.762;56.068;2023-02-12T06:06:41;19.45;;;10.68;;
29634;SDS011;16557;54.762;56.068;2023-02-12T06:09:11;29.70;;;14.58;;
29634;SDS011;16557;54.762;56.068;2023-02-12T06:11:41;23.42;;;11.53;;
29634;SDS011;16557;54.762;56.068;2023-02-12T06:14:12;23.62;;;11.57;;
29634;SDS011;16557;54.762;56.068;2023-02-12T06:16:43;22.20;;;10.93;;
29634;SDS011;16557;54.762;56.068;2023-02-12T06:19:13;18.40;;;10.30;;
29634;SDS011;16557;54.762;56.068;2023-02-12T06:21:43;20.75;;;9.95;;
29634;SDS011;16557;54.762;56.068;2023-02-12T06:24:13;23.02;;;11.30;;
29634;SDS011;16557;54.762;56.068;2023-02-12T06:26:43;19.35;;;9.20;;
29634;SDS011;16557;54.762;56.068;2023-02-12T06:29:13;19.80;;;9.30;;
29634;SDS011;16557;54.762;56.068;2023-02-12T06:31:42;21.07;;;10.15;;
29634;SDS011;16557;54.762;56.068;2023-02-12T06:34:11;22.58;;;10.90;;
29634;SDS011;16557;54.762;56.068;2023-02-12T06:36:43;20.70;;;11.10;;
29634;SDS011;16557;54.762;56.068;2023-02-12T06:39:14;22.10;;;10.25;;
29634;SDS011;16557;54.762;56.068;2023-02-12T06:41:43;23.12;;;11.12;;
29634;SDS011;16557;54.762;56.068;2023-02-12T06:44:13;25.35;;;10.88;;
29634;SDS011;16557;54.762;56.068;2023-02-12T06:46:42;24.20;;;11.38;;
29634;SDS011;16557;54.762;56.068;2023-02-12T06:49:11;25.82;;;10.28;;
29634;SDS011;16557;54.762;56.068;2023-02-12T06:51:41;23.55;;;11.80;;
29634;SDS011;16557;54.762;56.068;2023-02-12T06:54:14;25.55;;;11.20;;
29634;SDS011;16557;54.762;56.068;2023-02-12T06:56:44;20.35;;;11.53;;
29634;SDS011;16557;54.762;56.068;2023-02-12T06:59:14;21.73;;;10.75;;
29634;SDS011;16557;54.762;56.068;2023-02-12T07:01:44;21.57;;;10.35;;
29634;SDS011;16557;54.762;56.068;2023-02-12T07:04:13;23.00;;;10.55;;
29634;SDS011;16557;54.762;56.068;2023-02-12T07:06:42;22.75;;;10.90;;
29634;SDS011;16557;54.762;56.068;2023-02-12T07:09:12;20.00;;;10.43;;
29634;SDS011;16557;54.762;56.068;2023-02-12T07:11:41;20.05;;;11.38;;
29634;SDS011;16557;54.762;56.068;2023-02-12T07:14:12;20.60;;;10.13;;
29634;SDS011;16557;54.762;56.068;2023-02-12T07:16:44;22.73;;;10.75;;
29634;SDS011;16557;54.762;56.068;2023-02-12T07:19:16;26.52;;;11.75;;
29634;SDS011;16557;54.762;56.068;2023-02-12T07:21:44;19.15;;;10.53;;
29634;SDS011;16557;54.762;56.068;2023-02-12T07:24:13;22.75;;;11.65;;
29634;SDS011;16557;54.762;56.068;2023-02-12T07:26:44;21.85;;;10.93;;
29634;SDS011;16557;54.762;56.068;2023-02-12T07:29:13;18.50;;;10.15;;
29634;SDS011;16557;54.762;56.068;2023-02-12T07:31:43;18.87;;;10.53;;
29634;SDS011;16557;54.762;56.068;2023-02-12T07:34:12;21.73;;;10.58;;
29634;SDS011;16557;54.762;56.068;2023-02-12T07:36:42;20.65;;;9.85;;
29634;SDS011;16557;54.762;56.068;2023-02-12T07:39:11;18.57;;;9.80;;
29634;SDS011;16557;54.762;56.068;2023-02-12T07:41:40;17.82;;;10.13;;
29634;SDS011;16557;54.762;56.068;2023-02-12T07:44:11;15.70;;;9.60;;
29634;SDS011;16557;54.762;56.068;2023-02-12T07:46:47;21.05;;;10.15;;
29634;SDS011;16557;54.762;56.068;2023-02-12T07:49:16;16.50;;;9.43;;
29634;SDS011;16557;54.762;56.068;2023-02-12T07:51:47;17.77;;;9.93;;
29634;SDS011;16557;54.762;56.068;2023-02-12T07:54:16;16.37;;;10.05;;
29634;SDS011;16557;54.762;56.068;2023-02-12T07:56:45;18.42;;;9.65;;
29634;SDS011;16557;54.762;56.068;2023-02-12T07:59:16;22.40;;;10.10;;
29634;SDS011;16557;54.762;56.068;2023-02-12T08:01:49;26.10;;;9.15;;
29634;SDS011;16557;54.762;56.068;2023-02-12T08:04:20;16.45;;;9.05;;
29634;SDS011;16557;54.762;56.068;2023-02-12T08:06:51;16.32;;;8.35;;
29634;SDS011;16557;54.762;56.068;2023-02-12T08:09:22;17.50;;;9.08;;
29634;SDS011;16557;54.762;56.068;2023-02-12T08:11:53;15.75;;;9.03;;
29634;SDS011;16557;54.762;56.068;2023-02-12T08:14:22;15.32;;;9.15;;
29634;SDS011;16557;54.762;56.068;2023-02-12T08:16:52;17.25;;;8.65;;
29634;SDS011;16557;54.762;56.068;2023-02-12T08:19:21;14.00;;;8.30;;
29634;SDS011;16557;54.762;56.068;2023-02-12T08:21:52;16.15;;;8.73;;
29634;SDS011;16557;54.762;56.068;2023-02-12T08:24:22;16.65;;;9.33;;
29634;SDS011;16557;54.762;56.068;2023-02-12T08:26:51;15.05;;;7.70;;
29634;SDS011;16557;54.762;56.068;2023-02-12T08:29:22;18.60;;;10.15;;
29634;SDS011;16557;54.762;56.068;2023-02-12T08:31:56;21.80;;;11.50;;
29634;SDS011;16557;54.762;56.068;2023-02-12T08:34:33;16.02;;;8.53;;
29634;SDS011;16557;54.762;56.068;2023-02-12T08:37:01;15.20;;;8.85;;
29634;SDS011;16557;54.762;56.068;2023-02-12T08:39:32;17.90;;;9.63;;
29634;SDS011;16557;54.762;56.068;2023-02-12T08:42:02;14.55;;;9.10;;
29634;SDS011;16557;54.762;56.068;2023-02-12T08:44:32;14.53;;;7.53;;
29634;SDS011;16557;54.762;56.068;2023-02-12T08:47:01;11.45;;;7.30;;
29634;SDS011;16557;54.762;56.068;2023-02-12T08:49:32;12.25;;;6.65;;
29634;SDS011;16557;54.762;56.068;2023-02-12T08:52:02;16.73;;;6.90;;
29634;SDS011;16557;54.762;56.068;2023-02-12T08:54:31;12.80;;;7.22;;
29634;SDS011;16557;54.762;56.068;2023-02-12T08:57:01;13.20;;;6.25;;
29634;SDS011;16557;54.762;56.068;2023-02-12T08:59:30;10.30;;;5.83;;
29634;SDS011;16557;54.762;56.068;2023-02-12T09:02:00;11.05;;;6.45;;
29634;SDS011;16557;54.762;56.068;2023-02-12T09:04:31;12.93;;;5.95;;
29634;SDS011;16557;54.762;56.068;2023-02-12T09:07:02;8.13;;;5.85;;
29634;SDS011;16557;54.762;56.068;2023-02-12T09:09:32;12.28;;;6.58;;
29634;SDS011;16557;54.762;56.068;2023-02-12T09:12:01;14.55;;;8.53;;
29634;SDS011;16557;54.762;56.068;2023-02-12T09:14:30;12.33;;;6.40;;
29634;SDS011;16557;54.762;56.068;2023-02-12T09:16:59;9.68;;;6.25;;
29634;SDS011;16557;54.762;56.068;2023-02-12T09:19:29;14.80;;;6.50;;
29634;SDS011;16557;54.762;56.068;2023-02-12T09:21:58;9.00;;;5.55;;
29634;SDS011;16557;54.762;56.068;2023-02-12T09:24:27;11.30;;;6.10;;
29634;SDS011;16557;54.762;56.068;2023-02-12T09:26:57;12.37;;;5.95;;
29634;SDS011;16557;54.762;56.068;2023-02-12T09:29:26;9.98;;;6.12;;
29634;SDS011;16557;54.762;56.068;2023-02-12T09:31:55;10.50;;;5.72;;
29634;SDS011;16557;54.762;56.068;2023-02-12T09:34:25;8.63;;;5.28;;
29634;SDS011;16557;54.762;56.068;2023-02-12T09:36:54;8.75;;;5.15;;
29634;SDS011;16557;54.762;56.068;2023-02-12T09:39:24;10.50;;;5.53;;
29634;SDS011;16557;54.762;56.068;2023-02-12T09:42:02;9.58;;;5.90;;
29634;SDS011;16557;54.762;56.068;2023-02-12T09:44:51;9.40;;;5.37;;
29634;SDS011;16557;54.762;56.068;2023-02-12T09:50:16;10.23;;;5.75;;
29634;SDS011;16557;54.762;56.068;2023-02-12T09:52:50;13.10;;;7.45;;
29634;SDS011;16557;54.762;56.068;2023-02-12T09:55:19;10.18;;;5.60;;
29634;SDS011;16557;54.762;56.068;2023-02-12T09:57:50;7.10;;;4.60;;
29634;SDS011;16557;54.762;56.068;2023-02-12T10:00:30;8.50;;;4.87;;
29634;SDS011;16557;54.762;56.068;2023-02-12T10:03:01;8.28;;;4.72;;
29634;SDS011;16557;54.762;56.068;2023-02-12T10:05:41;9.28;;;5.00;;
29634;SDS011;16557;54.762;56.068;2023-02-12T10:08:31;9.53;;;4.97;;
29634;SDS011;16557;54.762;56.068;2023-02-12T10:25:42;7.45;;;4.03;;
29634;SDS011;16557;54.762;56.068;2023-02-12T10:28:14;7.72;;;4.97;;
29634;SDS011;16557;54.762;56.068;2023-02-12T10:33:18;7.70;;;4.87;;
29634;SDS011;16557;54.762;56.068;2023-02-12T10:35:49;7.97;;;4.90;;
29634;SDS011;16557;54.762;56.068;2023-02-12T10:38:22;9.23;;;5.78;;
29634;SDS011;16557;54.762;56.068;2023-02-12T10:40:53;13.18;;;6.30;;
29634;SDS011;16557;54.762;56.068;2023-02-12T10:43:23;11.57;;;5.35;;
29634;SDS011;16557;54.762;56.068;2023-02-12T10:45:53;9.05;;;5.08;;
29634;SDS011;16557;54.762;56.068;2023-02-12T10:48:28;10.23;;;4.60;;
29634;SDS011;16557;54.762;56.068;2023-02-12T10:51:07;9.68;;;5.08;;
29634;SDS011;16557;54.762;56.068;2023-02-12T10:53:36;8.05;;;5.03;;
29634;SDS011;16557;54.762;56.068;2023-02-12T10:56:19;10.25;;;6.17;;
29634;SDS011;16557;54.762;56.068;2023-02-12T10:58:59;9.83;;;5.35;;
29634;SDS011;16557;54.762;56.068;2023-02-12T11:01:30;8.65;;;5.10;;
29634;SDS011;16557;54.762;56.068;2023-02-12T11:06:57;11.18;;;5.53;;
29634;SDS011;16557;54.762;56.068;2023-02-12T11:09:33;9.28;;;5.15;;
29634;SDS011;16557;54.762;56.068;2023-02-12T11:12:44;9.80;;;5.30;;
29634;SDS011;16557;54.762;56.068;2023-02-12T11:17:43;7.45;;;4.70;;
29634;SDS011;16557;54.762;56.068;2023-02-12T11:20:22;8.10;;;4.60;;
29634;SDS011;16557;54.762;56.068;2023-02-12T11:23:01;7.37;;;4.80;;
29634;SDS011;16557;54.762;56.068;2023-02-12T11:25:35;11.80;;;6.92;;
29634;SDS011;16557;54.762;56.068;2023-02-12T11:28:12;8.85;;;5.60;;
29634;SDS011;16557;54.762;56.068;2023-02-12T11:33:28;9.40;;;5.33;;
29634;SDS011;16557;54.762;56.068;2023-02-12T11:36:00;15.35;;;8.50;;
29634;SDS011;16557;54.762;56.068;2023-02-12T11:38:32;11.15;;;6.25;;
29634;SDS011;16557;54.762;56.068;2023-02-12T11:41:06;9.25;;;5.08;;
29634;SDS011;16557;54.762;56.068;2023-02-12T11:43:38;13.68;;;5.05;;
29634;SDS011;16557;54.762;56.068;2023-02-12T11:46:07;8.53;;;4.92;;
29634;SDS011;16557;54.762;56.068;2023-02-12T11:48:39;9.05;;;5.53;;
29634;SDS011;16557;54.762;56.068;2023-02-12T11:51:16;8.13;;;4.97;;
29634;SDS011;16557;54.762;56.068;2023-02-12T11:53:42;9.55;;;5.10;;
29634;SDS011;16557;54.762;56.068;2023-02-12T11:56:14;9.80;;;5.28;;
29634;SDS011;16557;54.762;56.068;2023-02-12T11:58:47;8.65;;;5.15;;
29634;SDS011;16557;54.762;56.068;2023-02-12T12:01:18;10.75;;;5.72;;
29634;SDS011;16557;54.762;56.068;2023-02-12T12:03:54;7.92;;;4.58;;
29634;SDS011;16557;54.762;56.068;2023-02-12T12:06:34;9.93;;;5.65;;
29634;SDS011;16557;54.762;56.068;2023-02-12T12:09:20;7.75;;;5.05;;
29634;SDS011;16557;54.762;56.068;2023-02-12T12:14:45;9.75;;;5.22;;
29634;SDS011;16557;54.762;56.068;2023-02-12T12:17:40;8.80;;;5.33;;
29634;SDS011;16557;54.762;56.068;2023-02-12T12:20:38;10.40;;;5.03;;
29634;SDS011;16557;54.762;56.068;2023-02-12T12:23:23;8.63;;;4.85;;
29634;SDS011;16557;54.762;56.068;2023-02-12T12:25:51;11.78;;;6.47;;
29634;SDS011;16557;54.762;56.068;2023-02-12T12:28:26;12.80;;;6.00;;
29634;SDS011;16557;54.762;56.068;2023-02-12T12:33:40;8.50;;;5.58;;
29634;SDS011;16557;54.762;56.068;2023-02-12T12:47:41;10.15;;;6.10;;
29634;SDS011;16557;54.762;56.068;2023-02-12T12:53:03;9.50;;;5.70;;
29634;SDS011;16557;54.762;56.068;2023-02-12T12:55:43;11.35;;;6.92;;
29634;SDS011;16557;54.762;56.068;2023-02-12T12:58:49;11.43;;;6.42;;
29634;SDS011;16557;54.762;56.068;2023-02-12T13:23:29;13.22;;;7.87;;
29634;SDS011;16557;54.762;56.068;2023-02-12T13:26:10;11.03;;;7.22;;
29634;SDS011;16557;54.762;56.068;2023-02-12T13:28:39;12.37;;;8.03;;
29634;SDS011;16557;54.762;56.068;2023-02-12T13:31:16;12.65;;;7.58;;
29634;SDS011;16557;54.762;56.068;2023-02-12T13:33:50;12.80;;;7.60;;
29634;SDS011;16557;54.762;56.068;2023-02-12T13:36:23;12.70;;;8.30;;
29634;SDS011;16557;54.762;56.068;2023-02-12T13:38:57;14.50;;;7.90;;
29634;SDS011;16557;54.762;56.068;2023-02-12T13:41:31;13.53;;;8.15;;
29634;SDS011;16557;54.762;56.068;2023-02-12T13:44:12;11.68;;;7.58;;
29634;SDS011;16557;54.762;56.068;2023-02-12T13:47:07;14.75;;;7.85;;
29634;SDS011;16557;54.762;56.068;2023-02-12T13:52:26;15.08;;;8.60;;
29634;SDS011;16557;54.762;56.068;2023-02-12T13:55:00;14.53;;;7.70;;
29634;SDS011;16557;54.762;56.068;2023-02-12T13:57:29;14.90;;;8.08;;
29634;SDS011;16557;54.762;56.068;2023-02-12T13:59:58;14.47;;;8.45;;
29634;SDS011;16557;54.762;56.068;2023-02-12T14:05:14;12.35;;;7.37;;
29634;SDS011;16557;54.762;56.068;2023-02-12T14:10:20;14.78;;;7.90;;
29634;SDS011;16557;54.762;56.068;2023-02-12T14:15:50;21.68;;;10.48;;
29634;SDS011;16557;54.762;56.068;2023-02-12T14:23:43;12.55;;;8.90;;
29634;SDS011;16557;54.762;56.068;2023-02-12T14:26:16;10.98;;;6.60;;
29634;SDS011;16557;54.762;56.068;2023-02-12T14:29:00;11.08;;;6.62;;
29634;SDS011;16557;54.762;56.068;2023-02-12T14:31:31;13.13;;;7.90;;
29634;SDS011;16557;54.762;56.068;2023-02-12T14:36:39;14.53;;;8.43;;
29634;SDS011;16557;54.762;56.068;2023-02-12T14:41:52;12.65;;;8.13;;
29634;SDS011;16557;54.762;56.068;2023-02-12T14:47:15;9.10;;;5.80;;
29634;SDS011;16557;54.762;56.068;2023-02-12T14:52:17;10.13;;;5.92;;
29634;SDS011;16557;54.762;56.068;2023-02-12T14:54:53;8.90;;;5.47;;
29634;SDS011;16557;54.762;56.068;2023-02-12T14:57:25;10.53;;;5.97;;
29634;SDS011;16557;54.762;56.068;2023-02-12T15:02:51;9.23;;;6.03;;
29634;SDS011;16557;54.762;56.068;2023-02-12T15:05:36;12.05;;;7.15;;
29634;SDS011;16557;54.762;56.068;2023-02-12T15:11:11;10.90;;;6.45;;
29634;SDS011;16557;54.762;56.068;2023-02-12T15:16:22;10.80;;;7.05;;
29634;SDS011;16557;54.762;56.068;2023-02-12T15:19:00;12.05;;;7.62;;
29634;SDS011;16557;54.762;56.068;2023-02-12T15:21:31;13.30;;;8.23;;
29634;SDS011;16557;54.762;56.068;2023-02-12T15:24:08;11.18;;;7.45;;
29634;SDS011;16557;54.762;56.068;2023-02-12T15:26:41;16.93;;;9.18;;
29634;SDS011;16557;54.762;56.068;2023-02-12T15:29:22;12.65;;;7.92;;
29634;SDS011;16557;54.762;56.068;2023-02-12T15:31:56;14.30;;;8.43;;
29634;SDS011;16557;54.762;56.068;2023-02-12T15:34:29;13.10;;;7.80;;
29634;SDS011;16557;54.762;56.068;2023-02-12T15:36:59;15.18;;;8.23;;
29634;SDS011;16557;54.762;56.068;2023-02-12T15:39:38;16.93;;;10.28;;
29634;SDS011;16557;54.762;56.068;2023-02-12T15:42:26;13.18;;;8.73;;
29634;SDS011;16557;54.762;56.068;2023-02-12T15:47:44;13.13;;;7.42;;
29634;SDS011;16557;54.762;56.068;2023-02-12T15:50:16;15.60;;;7.80;;
29634;SDS011;16557;54.762;56.068;2023-02-12T15:52:45;13.75;;;7.70;;
29634;SDS011;16557;54.762;56.068;2023-02-12T15:55:16;13.50;;;7.42;;
29634;SDS011;16557;54.762;56.068;2023-02-12T15:57:53;12.82;;;7.50;;
29634;SDS011;16557;54.762;56.068;2023-02-12T16:03:01;13.32;;;7.53;;
29634;SDS011;16557;54.762;56.068;2023-02-12T16:05:30;11.70;;;7.20;;
29634;SDS011;16557;54.762;56.068;2023-02-12T16:08:00;10.28;;;7.30;;
29634;SDS011;16557;54.762;56.068;2023-02-12T16:10:29;10.10;;;6.55;;
29634;SDS011;16557;54.762;56.068;2023-02-12T16:12:58;13.32;;;7.55;;
29634;SDS011;16557;54.762;56.068;2023-02-12T16:15:29;12.98;;;6.97;;
29634;SDS011;16557;54.762;56.068;2023-02-12T16:18:03;12.25;;;6.95;;
29634;SDS011;16557;54.762;56.068;2023-02-12T16:20:35;15.55;;;7.87;;
29634;SDS011;16557;54.762;56.068;2023-02-12T16:23:04;12.10;;;7.55;;
29634;SDS011;16557;54.762;56.068;2023-02-12T16:25:35;14.55;;;7.70;;
29634;SDS011;16557;54.762;56.068;2023-02-12T16:28:11;12.30;;;7.50;;
29634;SDS011;16557;54.762;56.068;2023-02-12T16:30:44;13.60;;;7.22;;
29634;SDS011;16557;54.762;56.068;2023-02-12T16:36:06;14.58;;;8.53;;
29634;SDS011;16557;54.762;56.068;2023-02-12T16:44:19;14.85;;;7.62;;
29634;SDS011;16557;54.762;56.068;2023-02-12T16:46:52;15.53;;;9.15;;
29634;SDS011;16557;54.762;56.068;2023-02-12T16:49:23;14.65;;;9.08;;
29634;SDS011;16557;54.762;56.068;2023-02-12T16:51:54;15.85;;;8.48;;
29634;SDS011;16557;54.762;56.068;2023-02-12T16:54:26;13.98;;;7.87;;
29634;SDS011;16557;54.762;56.068;2023-02-12T16:56:59;15.18;;;9.60;;
29634;SDS011;16557;54.762;56.068;2023-02-12T16:59:30;16.15;;;9.05;;
29634;SDS011;16557;54.762;56.068;2023-02-12T17:02:02;15.10;;;9.23;;
29634;SDS011;16557;54.762;56.068;2023-02-12T17:04:32;17.10;;;9.63;;
29634;SDS011;16557;54.762;56.068;2023-02-12T17:07:01;15.40;;;8.38;;
29634;SDS011;16557;54.762;56.068;2023-02-12T17:09:30;15.58;;;8.33;;
29634;SDS011;16557;54.762;56.068;2023-02-12T17:12:00;15.88;;;8.85;;
29634;SDS011;16557;54.762;56.068;2023-02-12T17:14:29;13.30;;;8.25;;
29634;SDS011;16557;54.762;56.068;2023-02-12T17:16:58;18.02;;;9.93;;
29634;SDS011;16557;54.762;56.068;2023-02-12T17:19:28;16.37;;;9.95;;
29634;SDS011;16557;54.762;56.068;2023-02-12T17:21:57;13.32;;;8.10;;